Etusivu
METAR-TAF:

METAR-TAF

Lentoasemat :

Castries, Saint Lucia

Leveyspiiri: 14-01N, Pituuspiiri: 061-00W, korkeus merenpinnasta: 2 m

Tämänhetkinen sää

Tämä raportti tehtiin 10 tuntia ja 30 minuuttia sitten, kello 00.00 UTC
Tuuli 8 kn idästä
Lämpötila 29°C
Kosteus 70%
Ilmanpaine 1013 hPa
Näkyvyys 10 km tai enemmän
Muutamia pilviä 2200 ft:n korkeudessa

METAR: TLPC 210000Z 10008KT 9999 FEW022 29/23 Q1013 NOSIG

Aika: 06:30 (10:30 UTC)

Sääennuste

Tämä raportti tehtiin 5 tuntia ja 30 minuuttia sitten, kello 05.00 UTC
Ennuste voimassa 21. päivästä klo 06 UTC - 22. päivään klo 06 UTC
Tuuli 13 kn idästä/kaakosta
Näkyvyys 10 km tai enemmän
Hajanaisia pilviä 2500 ft:n korkeudessa
Ajoittain
21. päivästä klo 12 UTC - 21. päivään klo 18 UTC
Hajonneita pilviä 1500 ft:n korkeudessa
vesikuuroja,

TAF: TLPC 210500Z 2106/2206 11013KT 9999 SCT025 PRROB30 TEMPO 2112/2118 SHRA BKN015

Säähavainnot ja -ennusteet yli 4000 lentoasemalta (METAR- ja TAF-raportit).

Käytössä olevat sääasemat on merkitty karttaan keltaisilla ja punaisilla pisteillä.

Aseta hiiri pisteen päälle nähdäksesi sääaseman nimen.

Klikkaa sitten nähdäksesi säähavainnot ja -ennusteet.

Kartan vaihtaminen: klikkaa mustalla rastilla varustettuja vihreitä pisteitä, niin voit zoomata sisään; viivalla varustettua vihreää pistettä, niin voit zoomata ulos tai vihreitä nuolia, niin pääset viereisille kartoille.


METAR-TAF: